Saint Paul, Missouri
Current Conditions -  °F | °C
As of 3:54 AM on Thursday 23 Oct 2014 (Local Time) from KSUS Reporting Station
Clear Clear  
Wind Chill: 37°   Ceiling: Unl
Heat Index: 37°   Visibility: 9mi
Dew Point: 36°   Wind: 0mph
Humidity: 96%   Direction: NA
Pressure: 30.2"   Gusts: NA
Location:  38.8319°N, 90.7188°W
Report Text: KSUS 230854Z AUTO 00000KT 9SM CLR 03/02 A3020 RMK AO2 SLP228 T00280022 58003 TSNO
Loading
Personal Weather Stations






























Interactive Weather Map
Tropical Storm Tracking
New forecast layout! Learn more

10-Day Weather Forecast

Advertisements
Track Severe Weather on mobile